aviador You're here:

KLEW Decoded Metar

AUBURN/LEWISTON in ME, USA
Report Time2018-07-18 22:56:00
UTC Time2018-07-18 23:59:36
Flight Rules vfr VFR
Wind340° at 09 kt
W.Decomp.*RWY 35: 8.9 kt HW 1.1 kt RCW
RWY 04: 6.6 kt HW 6.1 kt LCW
W.Rank340° ranks 9
Current wind is above 340° avg. (7.8)
Visibility9999 m
Phenomena:N/A
Clouds:N/A
Expected CloudBase > 6,000 ft AGL from Temp-Dew spread
CeilingNone
Temp23°C (ISA +9)
Dew Point08°C (38% RH)
AAT19.3°C
QNH1013 hPa
Density Alt1,434 ft
Elevation289 ft
Report Wrong Elevation
Raw Report
KLEW 182256Z AUTO 34009KT 10SM CLR 23/08 A2990 RMK AO2 SLP138
T02330078=

Extra information for KLEW:More info

Metar Taf Metar & Taf Last 4 Metars F.Rules Stats Wind Profile Meteogram Temp Stats Airport Information Weather charts Add Link Nearby VenuesMetar ALERT Operation Metar Decoded Social comments

AIRNAV info for KLEW